createdAt,value
2023-05-10T00:02:08.092Z,10.30
2023-05-10T00:04:37.959Z,12.60
2023-05-10T00:07:07.840Z,15.38
2023-05-10T00:09:37.473Z,17.48
2023-05-10T00:12:09.905Z,17.08
2023-05-10T00:14:39.664Z,15.77
2023-05-10T00:17:09.329Z,24.13
2023-05-10T00:19:39.036Z,21.58
2023-05-10T00:22:08.753Z,20.13
2023-05-10T00:24:38.390Z,17.15
2023-05-10T00:27:10.752Z,20.77
2023-05-10T00:29:40.505Z,26.67
2023-05-10T00:32:10.411Z,20.98
2023-05-10T00:34:40.127Z,19.58
2023-05-10T00:37:09.834Z,20.58
2023-05-10T00:39:39.535Z,18.52
2023-05-10T00:42:11.777Z,16.53
2023-05-10T00:44:41.903Z,16.20
2023-05-10T00:47:11.942Z,15.50
2023-05-10T00:49:41.698Z,17.35
2023-05-10T00:52:12.023Z,14.98
2023-05-10T00:54:41.701Z,18.27
2023-05-10T00:57:14.231Z,18.05
2023-05-10T00:59:44.205Z,18.60
2023-05-10T01:02:14.268Z,21.17
2023-05-10T01:04:44.420Z,21.05
2023-05-10T01:07:14.354Z,19.08
2023-05-10T01:09:44.026Z,20.27
2023-05-10T01:12:17.527Z,22.00
2023-05-10T01:14:47.490Z,22.52
2023-05-10T01:17:17.504Z,23.60
2023-05-10T01:19:47.216Z,22.90
2023-05-10T01:22:36.994Z,24.20
2023-05-10T01:25:26.310Z,24.83
2023-05-10T01:28:26.659Z,27.45
2023-05-10T01:31:12.974Z,22.50
2023-05-10T01:33:48.653Z,28.95
2023-05-10T01:36:27.257Z,27.27
2023-05-10T01:39:01.389Z,30.90
2023-05-10T01:41:35.093Z,27.75
2023-05-10T01:44:11.236Z,33.67
2023-05-10T01:46:42.909Z,28.35
2023-05-10T01:49:19.864Z,27.98
2023-05-10T01:51:55.805Z,33.97
2023-05-10T01:54:26.527Z,31.00
2023-05-10T01:57:00.967Z,27.10
2023-05-10T01:59:34.640Z,30.38
2023-05-10T02:02:05.439Z,29.55
2023-05-10T02:04:39.387Z,31.42
2023-05-10T02:07:09.884Z,35.83
2023-05-10T02:09:40.539Z,34.95
2023-05-10T02:12:11.208Z,36.23
2023-05-10T02:14:41.386Z,32.65
2023-05-10T02:17:11.994Z,31.75
2023-05-10T02:19:46.456Z,32.28
2023-05-10T02:22:16.893Z,29.20
2023-05-10T02:24:47.786Z,27.60
2023-05-10T02:27:18.366Z,27.13
2023-05-10T02:29:48.508Z,27.10
2023-05-10T02:32:20.171Z,33.42
2023-05-10T02:34:53.140Z,33.72
2023-05-10T02:37:23.894Z,32.20
2023-05-10T02:39:54.920Z,33.80
2023-05-10T02:42:28.129Z,37.05
2023-05-10T02:45:00.114Z,34.17
2023-05-10T02:47:29.947Z,35.63
2023-05-10T02:50:02.423Z,40.70
2023-05-10T02:52:42.523Z,35.45
2023-05-10T02:55:16.103Z,39.58
2023-05-10T02:57:57.426Z,38.13
2023-05-10T03:00:28.331Z,32.00
2023-05-10T03:02:58.211Z,32.03
2023-05-10T03:05:31.553Z,34.47
2023-05-10T03:08:05.293Z,34.00
2023-05-10T03:10:36.859Z,30.35
2023-05-10T03:13:13.855Z,34.72
2023-05-10T03:15:49.578Z,35.20
2023-05-10T03:18:23.456Z,38.60
2023-05-10T03:21:02.088Z,36.30
2023-05-10T03:23:39.558Z,37.03
2023-05-10T03:26:10.008Z,33.83
2023-05-10T03:28:40.349Z,32.33
2023-05-10T03:31:10.398Z,36.08
2023-05-10T03:33:49.998Z,32.55
2023-05-10T03:36:27.638Z,32.90
2023-05-10T03:38:58.593Z,37.03
2023-05-10T03:41:28.800Z,36.00
2023-05-10T03:43:58.584Z,37.90
2023-05-10T03:46:28.469Z,36.80
2023-05-10T03:48:58.269Z,29.85
2023-05-10T03:51:32.205Z,36.63
2023-05-10T03:54:02.277Z,38.63
2023-05-10T03:56:32.047Z,33.63
2023-05-10T03:59:01.989Z,33.33
2023-05-10T04:01:31.829Z,39.53
2023-05-10T04:04:01.510Z,40.60
2023-05-10T04:06:34.344Z,38.10
2023-05-10T04:09:05.441Z,38.97
2023-05-10T04:11:35.211Z,43.92
2023-05-10T04:14:04.892Z,43.47
2023-05-10T04:16:34.564Z,43.58
2023-05-10T04:19:04.904Z,48.10
2023-05-10T04:21:37.125Z,40.10
2023-05-10T04:24:07.606Z,42.53
2023-05-10T04:26:37.280Z,49.40
2023-05-10T04:29:06.991Z,52.33
2023-05-10T04:31:37.426Z,56.63
2023-05-10T04:34:07.098Z,57.13
2023-05-10T04:36:39.345Z,63.67
2023-05-10T04:39:10.135Z,61.10
2023-05-10T04:41:41.647Z,64.93
2023-05-10T04:44:11.360Z,67.53
2023-05-10T04:46:41.079Z,67.03
2023-05-10T04:49:10.846Z,73.22
2023-05-10T04:51:43.090Z,65.68
2023-05-10T04:54:12.804Z,67.13
2023-05-10T04:56:42.480Z,68.05
2023-05-10T04:59:12.217Z,62.25
2023-05-10T05:01:41.932Z,72.70
2023-05-10T05:04:11.634Z,68.22
2023-05-10T05:06:44.517Z,64.63
2023-05-10T05:09:14.210Z,72.50
2023-05-10T05:11:44.041Z,77.45
2023-05-10T05:14:13.723Z,79.32
2023-05-10T05:16:43.467Z,74.60
2023-05-10T05:19:13.249Z,70.35
2023-05-10T05:21:45.743Z,78.72
2023-05-10T05:24:15.515Z,82.47
2023-05-10T05:26:45.302Z,85.38
2023-05-10T05:29:14.977Z,82.00
2023-05-10T05:31:44.754Z,80.35
2023-05-10T05:34:14.480Z,84.68
2023-05-10T05:36:46.791Z,83.78
2023-05-10T05:39:16.605Z,85.53
2023-05-10T05:41:47.228Z,86.63
2023-05-10T05:44:16.974Z,86.32
2023-05-10T05:46:46.580Z,84.30
2023-05-10T05:49:16.284Z,84.22
2023-05-10T05:51:50.610Z,75.38
2023-05-10T05:54:20.443Z,75.03
2023-05-10T05:56:50.114Z,82.00
2023-05-10T05:59:19.780Z,78.75
2023-05-10T06:01:49.528Z,70.32
2023-05-10T06:04:19.672Z,81.85
2023-05-10T06:06:51.971Z,69.85
2023-05-10T06:09:21.963Z,65.85
2023-05-10T06:11:51.736Z,67.75
2023-05-10T06:14:21.430Z,71.33
2023-05-10T06:16:51.173Z,71.15
2023-05-10T06:19:20.854Z,64.90
2023-05-10T06:21:53.910Z,73.60
2023-05-10T06:24:23.749Z,67.20
2023-05-10T06:26:53.430Z,65.47
2023-05-10T06:29:23.214Z,74.75
2023-05-10T06:31:52.978Z,62.47
2023-05-10T06:34:22.775Z,67.75
2023-05-10T06:36:55.136Z,62.28
2023-05-10T06:39:24.904Z,71.10
2023-05-10T06:41:55.466Z,74.32
2023-05-10T06:44:25.211Z,77.00
2023-05-10T06:46:56.344Z,75.57
2023-05-10T06:49:26.070Z,84.53
2023-05-10T06:51:59.411Z,73.75
2023-05-10T06:54:29.189Z,77.07
2023-05-10T06:56:59.000Z,79.63
2023-05-10T06:59:28.752Z,81.97
2023-05-10T07:01:58.521Z,85.22
2023-05-10T07:04:28.826Z,92.33
2023-05-10T07:07:01.126Z,93.37
2023-05-10T07:09:31.365Z,84.10
2023-05-10T07:12:01.125Z,90.93
2023-05-10T07:14:30.865Z,89.32
2023-05-10T07:17:00.559Z,85.47
2023-05-10T07:19:30.502Z,80.10
2023-05-10T07:22:02.833Z,78.32
2023-05-10T07:24:32.620Z,76.15
2023-05-10T07:27:02.376Z,69.28
2023-05-10T07:29:32.275Z,67.65
2023-05-10T07:32:02.322Z,68.17
2023-05-10T07:34:32.824Z,68.28
2023-05-10T07:37:05.516Z,72.18
2023-05-10T07:39:35.557Z,69.80
2023-05-10T07:42:05.238Z,68.18
2023-05-10T07:44:34.914Z,67.25
2023-05-10T07:47:04.606Z,80.03
2023-05-10T07:49:34.396Z,69.30
2023-05-10T07:52:07.072Z,67.63
2023-05-10T07:54:36.788Z,74.07
2023-05-10T07:57:06.546Z,67.60
2023-05-10T07:59:36.407Z,71.03
2023-05-10T08:02:06.070Z,66.80
2023-05-10T08:04:35.869Z,72.55
2023-05-10T08:07:08.382Z,82.60
2023-05-10T08:09:38.154Z,95.13
2023-05-10T08:12:08.837Z,83.20
2023-05-10T08:14:38.935Z,78.93
2023-05-10T08:17:08.625Z,63.85
2023-05-10T08:19:38.410Z,71.30
2023-05-10T08:22:11.328Z,57.97
2023-05-10T08:24:43.055Z,51.80
2023-05-10T08:27:12.837Z,52.90
2023-05-10T08:29:50.212Z,43.63
2023-05-10T08:32:20.475Z,33.88
2023-05-10T08:34:50.118Z,32.10
2023-05-10T08:37:22.509Z,29.00
2023-05-10T08:39:52.228Z,32.20
2023-05-10T08:42:23.978Z,34.33
2023-05-10T08:44:54.039Z,33.28
2023-05-10T08:47:24.317Z,36.67
2023-05-10T08:49:54.480Z,39.78
2023-05-10T08:52:28.963Z,47.75
2023-05-10T08:54:58.756Z,37.25
2023-05-10T08:57:29.074Z,42.97
2023-05-10T08:59:58.962Z,38.47
2023-05-10T09:02:29.076Z,41.93
2023-05-10T09:04:59.048Z,33.05
2023-05-10T09:07:31.550Z,38.47
2023-05-10T09:10:01.976Z,42.38
2023-05-10T09:12:31.826Z,41.47
2023-05-10T09:15:02.548Z,45.47
2023-05-10T09:17:33.193Z,41.67
2023-05-10T09:20:03.805Z,46.28
2023-05-10T09:22:36.810Z,42.92
2023-05-10T09:25:12.148Z,43.17
2023-05-10T09:27:42.636Z,46.65
2023-05-10T09:30:13.188Z,52.90
2023-05-10T09:32:44.303Z,44.10
2023-05-10T09:35:15.011Z,45.50
2023-05-10T09:37:48.908Z,45.20
2023-05-10T09:40:19.717Z,51.53
2023-05-10T09:42:55.847Z,52.25
2023-05-10T09:45:26.396Z,51.17
2023-05-10T09:47:56.809Z,53.45
2023-05-10T09:50:26.969Z,54.33
2023-05-10T09:53:01.280Z,58.75
2023-05-10T09:55:42.743Z,63.03
2023-05-10T09:58:13.323Z,59.17
2023-05-10T10:00:44.617Z,56.00
2023-05-10T10:03:17.165Z,57.55
2023-05-10T10:05:48.381Z,48.63
2023-05-10T10:08:21.654Z,61.80
2023-05-10T10:10:51.557Z,56.50
2023-05-10T10:13:21.368Z,54.60
2023-05-10T10:15:52.291Z,44.58
2023-05-10T10:18:24.945Z,46.97
2023-05-10T10:20:55.560Z,40.25
2023-05-10T10:23:28.044Z,43.55
2023-05-10T10:25:58.832Z,42.05
2023-05-10T10:28:34.473Z,47.50
2023-05-10T10:31:15.460Z,40.50
2023-05-10T10:33:58.484Z,40.17
2023-05-10T10:36:28.829Z,38.30
2023-05-10T10:39:04.281Z,32.38
2023-05-10T10:41:36.472Z,38.80
2023-05-10T10:44:27.883Z,29.17
2023-05-10T10:47:07.016Z,29.70
2023-05-10T10:49:41.727Z,32.10
2023-05-10T10:52:18.938Z,31.20
2023-05-10T10:54:57.294Z,32.47
2023-05-10T10:57:27.734Z,30.27
2023-05-10T11:00:22.870Z,33.67
2023-05-10T11:02:54.375Z,31.80
2023-05-10T11:05:29.008Z,30.25
2023-05-10T11:08:00.048Z,29.55
2023-05-10T11:10:32.680Z,31.33
2023-05-10T11:13:03.998Z,33.37
2023-05-10T11:15:34.724Z,42.20
2023-05-10T11:18:20.915Z,40.72
2023-05-10T11:20:54.695Z,36.88
2023-05-10T11:23:24.723Z,39.40
2023-05-10T11:25:58.121Z,40.45
2023-05-10T11:28:28.038Z,45.15
2023-05-10T11:30:58.605Z,35.45
2023-05-10T11:33:28.306Z,39.38
2023-05-10T11:35:57.952Z,40.72
2023-05-10T11:38:27.695Z,40.92
2023-05-10T11:40:59.999Z,36.30
2023-05-10T11:43:31.957Z,34.20
2023-05-10T11:46:01.713Z,34.88
2023-05-10T11:48:33.592Z,32.45
2023-05-10T11:51:04.828Z,31.60
2023-05-10T11:53:36.164Z,36.88
2023-05-10T11:56:13.040Z,34.53
2023-05-10T11:58:43.481Z,34.33
2023-05-10T12:01:13.494Z,28.13
2023-05-10T12:03:44.259Z,27.77
2023-05-10T12:06:14.227Z,30.08
2023-05-10T12:08:48.354Z,27.95
2023-05-10T12:11:22.049Z,28.50
2023-05-10T12:13:51.952Z,28.38
2023-05-10T12:16:23.860Z,32.20
2023-05-10T12:18:54.691Z,28.07
2023-05-10T12:21:25.005Z,27.23
2023-05-10T12:23:56.550Z,24.15
2023-05-10T12:26:29.903Z,30.90
2023-05-10T12:29:15.019Z,28.17
2023-05-10T12:31:56.205Z,27.05
2023-05-10T12:34:30.060Z,27.77
2023-05-10T12:36:59.790Z,28.20
2023-05-10T12:39:29.518Z,31.30
2023-05-10T12:42:01.871Z,27.33
2023-05-10T12:44:31.626Z,24.92
2023-05-10T12:47:01.290Z,30.48
2023-05-10T12:49:31.056Z,28.65
2023-05-10T12:52:00.817Z,32.97
2023-05-10T12:54:30.591Z,31.95
2023-05-10T12:57:02.881Z,29.40
2023-05-10T12:59:32.583Z,28.38
2023-05-10T13:02:02.242Z,32.65
2023-05-10T13:04:32.009Z,29.87
2023-05-10T13:07:01.788Z,29.75
2023-05-10T13:09:32.159Z,28.30
2023-05-10T13:12:04.681Z,27.90
2023-05-10T13:14:35.167Z,26.77
2023-05-10T13:17:05.124Z,27.70
2023-05-10T13:19:34.967Z,24.42
2023-05-10T13:22:04.739Z,21.83
2023-05-10T13:24:34.381Z,21.38
2023-05-10T13:27:06.826Z,17.75
2023-05-10T13:29:36.570Z,20.85
2023-05-10T13:32:06.338Z,20.00
2023-05-10T13:34:36.798Z,17.10
2023-05-10T13:37:06.492Z,18.10
2023-05-10T13:39:38.590Z,17.67
2023-05-10T13:42:10.946Z,17.08
2023-05-10T13:44:41.141Z,16.10
2023-05-10T13:47:11.451Z,16.65
2023-05-10T13:49:41.101Z,14.57
2023-05-10T13:52:11.240Z,14.82
2023-05-10T13:54:40.964Z,15.87
2023-05-10T13:57:15.017Z,17.13
2023-05-10T13:59:44.756Z,16.15
2023-05-10T14:02:14.565Z,15.10
2023-05-10T14:04:44.360Z,15.10
2023-05-10T14:07:14.049Z,15.82
2023-05-10T14:09:43.733Z,16.65
2023-05-10T14:12:16.447Z,13.98
2023-05-10T14:14:46.356Z,17.15
2023-05-10T14:17:16.070Z,17.55
2023-05-10T14:19:45.705Z,19.17
2023-05-10T14:22:15.481Z,18.20
2023-05-10T14:24:47.806Z,22.40
2023-05-10T14:27:20.606Z,22.70
2023-05-10T14:29:51.150Z,17.63
2023-05-10T14:32:21.061Z,18.10
2023-05-10T14:34:50.828Z,18.52
2023-05-10T14:37:20.499Z,20.48
2023-05-10T14:39:50.181Z,19.73
2023-05-10T14:42:22.772Z,19.35
2023-05-10T14:44:52.501Z,22.15
2023-05-10T14:47:22.285Z,18.20
2023-05-10T14:49:51.998Z,20.00
2023-05-10T14:52:21.688Z,21.42
2023-05-10T14:54:51.545Z,20.58
2023-05-10T14:57:23.802Z,19.38
2023-05-10T14:59:53.503Z,22.20
2023-05-10T15:02:23.603Z,16.77
2023-05-10T15:04:53.722Z,19.08
2023-05-10T15:07:23.852Z,22.35
2023-05-10T15:09:54.113Z,23.00
2023-05-10T15:12:26.409Z,24.20
2023-05-10T15:14:56.200Z,21.70
2023-05-10T15:17:26.063Z,19.30
2023-05-10T15:19:55.842Z,18.38
2023-05-10T15:22:25.786Z,20.88
2023-05-10T15:24:55.726Z,22.63
2023-05-10T15:27:28.073Z,20.13
2023-05-10T15:29:58.004Z,19.40
2023-05-10T15:32:28.163Z,21.67
2023-05-10T15:34:58.262Z,19.80
2023-05-10T15:37:28.674Z,21.30
2023-05-10T15:40:04.183Z,20.95
2023-05-10T15:42:37.250Z,21.60
2023-05-10T15:45:12.639Z,21.00
2023-05-10T15:47:43.067Z,21.58
2023-05-10T15:50:15.765Z,21.58
2023-05-10T15:52:45.665Z,23.08
2023-05-10T15:55:16.240Z,22.85
2023-05-10T15:57:49.076Z,22.75
2023-05-10T16:00:19.629Z,20.77
2023-05-10T16:02:49.526Z,20.30
2023-05-10T16:05:19.759Z,21.23
2023-05-10T16:07:49.704Z,22.13
2023-05-10T16:10:19.593Z,20.25
2023-05-10T16:12:51.907Z,23.45
2023-05-10T16:15:21.872Z,22.80
2023-05-10T16:17:51.698Z,24.00
2023-05-10T16:20:21.399Z,26.13
2023-05-10T16:22:51.060Z,22.77
2023-05-10T16:25:21.174Z,29.40
2023-05-10T16:27:53.661Z,26.23
2023-05-10T16:30:24.552Z,26.52
2023-05-10T16:32:54.440Z,25.05
2023-05-10T16:35:24.235Z,24.88
2023-05-10T16:37:54.063Z,25.55
2023-05-10T16:40:24.123Z,26.08
2023-05-10T16:42:56.388Z,21.10
2023-05-10T16:45:27.041Z,15.87
2023-05-10T16:47:57.637Z,10.70
2023-05-10T16:50:27.380Z,10.40
2023-05-10T16:52:57.008Z,9.83
2023-05-10T16:55:26.988Z,8.07
2023-05-10T16:58:01.007Z,7.43
2023-05-10T17:00:30.814Z,6.15
2023-05-10T17:03:00.880Z,8.77
2023-05-10T17:05:30.722Z,7.40
2023-05-10T17:08:00.404Z,9.80
2023-05-10T17:10:30.127Z,8.50
2023-05-10T17:13:03.087Z,9.57
2023-05-10T17:15:32.850Z,8.02
2023-05-10T17:18:02.567Z,12.88
2023-05-10T17:20:32.284Z,8.60
2023-05-10T17:23:03.406Z,9.48
2023-05-10T17:25:33.221Z,8.70
2023-05-10T17:28:05.648Z,8.45
2023-05-10T17:30:35.409Z,9.82
2023-05-10T17:33:05.437Z,7.93
2023-05-10T17:35:35.426Z,7.43
2023-05-10T17:38:05.477Z,12.15
2023-05-10T17:40:35.593Z,7.80
2023-05-10T17:43:08.129Z,12.02
2023-05-10T17:45:40.317Z,8.07
2023-05-10T17:48:11.552Z,9.23
2023-05-10T17:50:41.574Z,9.80
2023-05-10T17:53:11.232Z,7.97
2023-05-10T17:55:43.871Z,8.25
2023-05-10T17:58:16.398Z,10.57
2023-05-10T18:00:46.484Z,9.02
2023-05-10T18:03:16.479Z,8.68
2023-05-10T18:05:46.238Z,10.50
2023-05-10T18:08:22.993Z,7.20
2023-05-10T18:10:52.747Z,9.88
2023-05-10T18:13:25.782Z,12.18
2023-05-10T18:15:55.785Z,10.35
2023-05-10T18:18:25.717Z,10.82
2023-05-10T18:20:57.791Z,10.18
2023-05-10T18:23:27.773Z,10.68
2023-05-10T18:25:57.722Z,11.63
2023-05-10T18:28:30.304Z,9.82
2023-05-10T18:31:00.499Z,9.95
2023-05-10T18:33:30.182Z,10.37
2023-05-10T18:36:00.053Z,11.07
2023-05-10T18:38:29.980Z,10.20
2023-05-10T18:41:00.282Z,11.27
2023-05-10T18:43:34.120Z,10.77
2023-05-10T18:46:03.915Z,11.50
2023-05-10T18:48:33.746Z,11.65
2023-05-10T18:51:03.433Z,9.30
2023-05-10T18:53:33.923Z,12.63
2023-05-10T18:56:03.630Z,12.40
2023-05-10T18:58:36.695Z,10.10
2023-05-10T19:01:07.147Z,11.80
2023-05-10T19:03:38.994Z,11.63
2023-05-10T19:06:09.387Z,9.25
2023-05-10T19:08:39.179Z,12.60
2023-05-10T19:11:08.933Z,12.48
2023-05-10T19:13:41.423Z,12.40
2023-05-10T19:16:15.594Z,10.60
2023-05-10T19:18:46.032Z,11.20
2023-05-10T19:21:16.820Z,11.18
2023-05-10T19:23:48.276Z,10.30
2023-05-10T19:26:18.010Z,14.80
2023-05-10T19:28:50.500Z,10.30
2023-05-10T19:31:20.521Z,13.02
2023-05-10T19:33:50.665Z,9.52
2023-05-10T19:36:20.295Z,10.10
2023-05-10T19:38:49.988Z,12.10
2023-05-10T19:41:19.824Z,8.07
2023-05-10T19:43:53.137Z,13.83
2023-05-10T19:46:23.519Z,10.30
2023-05-10T19:48:53.316Z,9.35
2023-05-10T19:51:23.163Z,11.45
2023-05-10T19:53:52.885Z,9.30
2023-05-10T19:56:22.554Z,10.40
2023-05-10T19:58:54.938Z,9.52
2023-05-10T20:01:24.797Z,8.60
2023-05-10T20:03:55.053Z,12.47
2023-05-10T20:06:24.753Z,12.00
2023-05-10T20:08:54.375Z,12.60
2023-05-10T20:11:24.369Z,8.43
2023-05-10T20:13:57.059Z,9.48
2023-05-10T20:16:27.030Z,13.70
2023-05-10T20:18:57.254Z,11.02
2023-05-10T20:21:27.391Z,11.18
2023-05-10T20:23:58.981Z,13.10
2023-05-10T20:26:29.068Z,13.02
2023-05-10T20:29:01.303Z,12.77
2023-05-10T20:31:31.086Z,11.13
2023-05-10T20:34:00.760Z,12.98
2023-05-10T20:36:31.338Z,12.85
2023-05-10T20:39:01.104Z,10.90
2023-05-10T20:41:30.792Z,13.35
2023-05-10T20:44:03.265Z,13.93
2023-05-10T20:46:33.175Z,12.50
2023-05-10T20:49:03.021Z,18.45
2023-05-10T20:51:33.475Z,14.63
2023-05-10T20:54:04.469Z,17.50
2023-05-10T20:56:35.074Z,19.55
2023-05-10T20:59:07.362Z,20.30
2023-05-10T21:01:37.168Z,22.55
2023-05-10T21:04:06.893Z,19.63
2023-05-10T21:06:36.631Z,17.95
2023-05-10T21:09:06.636Z,21.63
2023-05-10T21:11:38.493Z,21.42
2023-05-10T21:14:10.723Z,19.77
2023-05-10T21:16:40.628Z,16.85
2023-05-10T21:19:10.374Z,22.83
2023-05-10T21:21:40.140Z,20.42
2023-05-10T21:24:10.429Z,18.92
2023-05-10T21:26:40.082Z,19.75
2023-05-10T21:29:12.812Z,24.52
2023-05-10T21:31:42.530Z,18.83
2023-05-10T21:34:14.272Z,23.55
2023-05-10T21:36:43.924Z,22.30
2023-05-10T21:39:14.062Z,21.88
2023-05-10T21:41:44.482Z,22.00
2023-05-10T21:44:16.801Z,21.38
2023-05-10T21:46:46.576Z,23.77
2023-05-10T21:49:16.243Z,24.35
2023-05-10T21:51:45.879Z,23.98
2023-05-10T21:54:15.545Z,17.00
2023-05-10T21:56:45.191Z,20.08
2023-05-10T21:59:18.161Z,18.55
2023-05-10T22:01:47.939Z,19.80
2023-05-10T22:04:17.609Z,19.90
2023-05-10T22:06:47.966Z,24.65
2023-05-10T22:09:17.705Z,23.95
2023-05-10T22:11:48.728Z,21.35
2023-05-10T22:14:21.063Z,20.10
2023-05-10T22:16:50.823Z,18.73
2023-05-10T22:19:20.495Z,21.33
2023-05-10T22:21:50.101Z,18.25
2023-05-10T22:24:19.729Z,19.80
2023-05-10T22:26:49.437Z,20.02
2023-05-10T22:29:21.702Z,16.42
2023-05-10T22:31:51.526Z,22.08
2023-05-10T22:34:21.293Z,24.75
2023-05-10T22:36:51.062Z,22.80
2023-05-10T22:39:20.712Z,27.40
2023-05-10T22:41:50.494Z,23.45
2023-05-10T22:44:22.784Z,25.20
2023-05-10T22:46:52.614Z,20.65
2023-05-10T22:49:22.471Z,24.93
2023-05-10T22:51:52.423Z,20.38
2023-05-10T22:54:22.095Z,26.38
2023-05-10T22:56:51.789Z,24.75
2023-05-10T22:59:24.416Z,25.15
2023-05-10T23:01:54.193Z,28.10
2023-05-10T23:04:24.180Z,27.37
2023-05-10T23:06:53.870Z,26.15
2023-05-10T23:09:23.516Z,29.27
2023-05-10T23:11:53.324Z,25.25
2023-05-10T23:14:25.909Z,25.77
2023-05-10T23:16:55.661Z,26.88
2023-05-10T23:19:25.305Z,26.07
2023-05-10T23:21:55.167Z,27.00
2023-05-10T23:24:24.864Z,28.77
2023-05-10T23:26:54.846Z,26.40
2023-05-10T23:29:27.237Z,29.13
2023-05-10T23:31:57.026Z,33.10
2023-05-10T23:34:26.785Z,31.42
2023-05-10T23:36:56.615Z,34.90
2023-05-10T23:39:26.401Z,40.17
2023-05-10T23:41:56.052Z,34.78
2023-05-10T23:44:28.422Z,33.80
2023-05-10T23:46:58.170Z,38.13
2023-05-10T23:49:27.791Z,42.22
2023-05-10T23:51:57.472Z,43.85
2023-05-10T23:54:27.166Z,37.65
2023-05-10T23:56:57.003Z,40.22
2023-05-10T23:59:29.387Z,41.58
